Bega, New South Wales

8:33 AM AEST on September 29, 2016 (GMT +1000)
Buckajo | | Change Station

Elev 371 ft 36.69 °S, 149.79 °E | Updated 9 seconds ago

Scattered Clouds
Scattered Clouds
52.2 °F
Feels Like 52.2 °F
N
7.2
Wind Variable Wind from East
Gusts 13.6 mph

Today
High -- | Low -- °F
--% Chance of Precip.
Yesterday
High -- | Low -- °F
Precip. -- in
Pressure 29.47 in
Visibility -9999.0 miles
Clouds Scattered Clouds 4300 ft
Scattered Clouds 5400 ft
Scattered Clouds 6700 ft
Dew Point 47 °F
Humidity 83%
Rainfall 0.04 in
Snow Depth Not available.
5:39 AM 6:02 PM
Waning Crescent, 4% visible
METAR YMER 282200Z AUTO 36007KT //// // SCT043 SCT054 SCT067 14/10 Q0998
Pressure 29.47 in
Visibility -9999.0 miles
Clouds Scattered Clouds 4300 ft
Scattered Clouds 5400 ft
Scattered Clouds 6700 ft
Dew Point 47 °F
Humidity 83%
Rainfall 0.04 in
Snow Depth Not available.
5:39 AM 6:02 PM
Waning Crescent, 4% visible
METAR YMER 282200Z AUTO 36007KT //// // SCT043 SCT054 SCT067 14/10 Q0998

10-Day Weather Forecast

No radar image for this location.
×

Almanac

Astronomy

Sep. 29, 2016 Rise Set
Actual Time
Civil Twilight
Nautical Twilight
Astronomical Twilight
Moon
Length of Visible Light
Length of Day
Tomorrow will be .
, % of the Moon is Illuminated

Today's Extremes

Country Highs Country Lows

Community

WunderPhotos

Upload Photos

1,942,338 photos uploaded!

WunderBlog® & News

Nearby

Air Quality

  Air Quality AQ Index Pollutant
Not available.

Snow Depth

Station Depth Elevation

Earthquake Activity

City Distance Mag. Time & Date
Minimum magnitude displayed is 2.5.

Coastal Water Temperatures

Place Temperature

Stations

Nearby Weather Stations

Station Location Temp. Windchill Dew Point Humidity Wind Precip. Elev Updated Type